sensor_id;sensor_type;location;lat;lon;timestamp;P1;durP1;ratioP1;P2;durP2;ratioP2
4294;SDS011;2161;53.634;10.100;2023-04-03T00:01:06;497.77;;;103.70;;
4294;SDS011;2161;53.634;10.100;2023-04-03T00:03:32;497.37;;;102.70;;
4294;SDS011;2161;53.634;10.100;2023-04-03T00:05:58;510.70;;;108.72;;
4294;SDS011;2161;53.634;10.100;2023-04-03T00:08:24;502.23;;;104.13;;
4294;SDS011;2161;53.634;10.100;2023-04-03T00:10:49;505.97;;;107.43;;
4294;SDS011;2161;53.634;10.100;2023-04-03T00:13:15;513.43;;;111.40;;
4294;SDS011;2161;53.634;10.100;2023-04-03T00:15:41;498.33;;;103.90;;
4294;SDS011;2161;53.634;10.100;2023-04-03T00:18:07;508.60;;;108.57;;
4294;SDS011;2161;53.634;10.100;2023-04-03T00:20:32;500.83;;;105.13;;
4294;SDS011;2161;53.634;10.100;2023-04-03T00:22:58;503.43;;;106.57;;
4294;SDS011;2161;53.634;10.100;2023-04-03T00:25:24;505.58;;;106.75;;
4294;SDS011;2161;53.634;10.100;2023-04-03T00:27:50;502.57;;;104.97;;
4294;SDS011;2161;53.634;10.100;2023-04-03T00:30:16;505.07;;;107.27;;
4294;SDS011;2161;53.634;10.100;2023-04-03T00:32:43;496.83;;;103.95;;
4294;SDS011;2161;53.634;10.100;2023-04-03T00:35:09;506.53;;;108.00;;
4294;SDS011;2161;53.634;10.100;2023-04-03T00:37:35;507.80;;;108.57;;
4294;SDS011;2161;53.634;10.100;2023-04-03T00:40:01;500.07;;;104.20;;
4294;SDS011;2161;53.634;10.100;2023-04-03T00:42:28;504.70;;;107.13;;
4294;SDS011;2161;53.634;10.100;2023-04-03T00:47:22;504.30;;;106.80;;
4294;SDS011;2161;53.634;10.100;2023-04-03T00:49:48;496.35;;;104.43;;
4294;SDS011;2161;53.634;10.100;2023-04-03T00:52:16;503.67;;;106.85;;
4294;SDS011;2161;53.634;10.100;2023-04-03T00:54:45;505.38;;;107.57;;
4294;SDS011;2161;53.634;10.100;2023-04-03T00:57:12;503.13;;;108.68;;
4294;SDS011;2161;53.634;10.100;2023-04-03T00:59:41;498.08;;;103.95;;
4294;SDS011;2161;53.634;10.100;2023-04-03T01:02:10;498.02;;;104.60;;
4294;SDS011;2161;53.634;10.100;2023-04-03T01:07:05;495.95;;;104.90;;
4294;SDS011;2161;53.634;10.100;2023-04-03T01:09:32;500.48;;;106.50;;
4294;SDS011;2161;53.634;10.100;2023-04-03T01:12:19;494.75;;;103.93;;
4294;SDS011;2161;53.634;10.100;2023-04-03T01:14:46;493.30;;;103.40;;
4294;SDS011;2161;53.634;10.100;2023-04-03T01:17:26;503.40;;;107.07;;
4294;SDS011;2161;53.634;10.100;2023-04-03T01:20:14;499.23;;;105.30;;
4294;SDS011;2161;53.634;10.100;2023-04-03T01:25:35;494.98;;;103.28;;
4294;SDS011;2161;53.634;10.100;2023-04-03T01:28:03;500.80;;;108.38;;
4294;SDS011;2161;53.634;10.100;2023-04-03T01:30:31;503.02;;;107.30;;
4294;SDS011;2161;53.634;10.100;2023-04-03T01:33:04;496.73;;;106.55;;
4294;SDS011;2161;53.634;10.100;2023-04-03T01:35:30;490.60;;;103.07;;
4294;SDS011;2161;53.634;10.100;2023-04-03T01:37:55;493.40;;;105.40;;
4294;SDS011;2161;53.634;10.100;2023-04-03T01:40:21;496.13;;;105.33;;
4294;SDS011;2161;53.634;10.100;2023-04-03T01:42:46;491.43;;;102.77;;
4294;SDS011;2161;53.634;10.100;2023-04-03T01:45:12;499.83;;;107.80;;
4294;SDS011;2161;53.634;10.100;2023-04-03T01:47:37;502.53;;;109.00;;
4294;SDS011;2161;53.634;10.100;2023-04-03T01:50:03;493.17;;;102.70;;
4294;SDS011;2161;53.634;10.100;2023-04-03T01:52:29;496.33;;;105.47;;
4294;SDS011;2161;53.634;10.100;2023-04-03T01:54:55;493.10;;;104.15;;
4294;SDS011;2161;53.634;10.100;2023-04-03T01:57:20;506.60;;;112.83;;
4294;SDS011;2161;53.634;10.100;2023-04-03T01:59:46;494.77;;;103.70;;
4294;SDS011;2161;53.634;10.100;2023-04-03T02:02:11;492.27;;;102.37;;
4294;SDS011;2161;53.634;10.100;2023-04-03T02:04:37;487.83;;;102.27;;
4294;SDS011;2161;53.634;10.100;2023-04-03T02:07:03;493.93;;;104.53;;
4294;SDS011;2161;53.634;10.100;2023-04-03T02:09:28;491.70;;;101.80;;
4294;SDS011;2161;53.634;10.100;2023-04-03T02:11:54;493.03;;;103.17;;
4294;SDS011;2161;53.634;10.100;2023-04-03T02:14:20;493.03;;;102.37;;
4294;SDS011;2161;53.634;10.100;2023-04-03T02:16:46;493.70;;;103.85;;
4294;SDS011;2161;53.634;10.100;2023-04-03T02:19:12;495.67;;;106.03;;
4294;SDS011;2161;53.634;10.100;2023-04-03T02:21:37;496.03;;;104.73;;
4294;SDS011;2161;53.634;10.100;2023-04-03T02:24:03;493.23;;;103.90;;
4294;SDS011;2161;53.634;10.100;2023-04-03T02:26:29;490.37;;;103.00;;
4294;SDS011;2161;53.634;10.100;2023-04-03T02:28:54;488.53;;;102.30;;
4294;SDS011;2161;53.634;10.100;2023-04-03T02:31:20;496.97;;;106.57;;
4294;SDS011;2161;53.634;10.100;2023-04-03T02:33:45;493.70;;;103.20;;
4294;SDS011;2161;53.634;10.100;2023-04-03T02:36:11;496.70;;;104.53;;
4294;SDS011;2161;53.634;10.100;2023-04-03T02:38:36;496.43;;;104.40;;
4294;SDS011;2161;53.634;10.100;2023-04-03T02:41:02;495.47;;;103.93;;
4294;SDS011;2161;53.634;10.100;2023-04-03T02:43:29;492.17;;;102.55;;
4294;SDS011;2161;53.634;10.100;2023-04-03T02:45:55;492.90;;;103.10;;
4294;SDS011;2161;53.634;10.100;2023-04-03T02:48:20;495.83;;;105.10;;
4294;SDS011;2161;53.634;10.100;2023-04-03T02:50:46;488.27;;;102.43;;
4294;SDS011;2161;53.634;10.100;2023-04-03T02:53:12;498.87;;;109.20;;
4294;SDS011;2161;53.634;10.100;2023-04-03T02:55:37;490.10;;;103.13;;
4294;SDS011;2161;53.634;10.100;2023-04-03T02:58:03;492.03;;;103.23;;
4294;SDS011;2161;53.634;10.100;2023-04-03T03:00:28;492.57;;;103.53;;
4294;SDS011;2161;53.634;10.100;2023-04-03T03:02:54;491.58;;;102.60;;
4294;SDS011;2161;53.634;10.100;2023-04-03T03:05:20;497.03;;;105.50;;
4294;SDS011;2161;53.634;10.100;2023-04-03T03:07:46;491.77;;;102.55;;
4294;SDS011;2161;53.634;10.100;2023-04-03T03:10:12;492.47;;;105.53;;
4294;SDS011;2161;53.634;10.100;2023-04-03T03:12:37;494.80;;;104.90;;
4294;SDS011;2161;53.634;10.100;2023-04-03T03:15:03;489.90;;;102.90;;
4294;SDS011;2161;53.634;10.100;2023-04-03T03:17:29;491.13;;;102.53;;
4294;SDS011;2161;53.634;10.100;2023-04-03T03:19:54;493.03;;;104.43;;
4294;SDS011;2161;53.634;10.100;2023-04-03T03:22:20;487.73;;;103.70;;
4294;SDS011;2161;53.634;10.100;2023-04-03T03:24:45;503.40;;;111.30;;
4294;SDS011;2161;53.634;10.100;2023-04-03T03:27:11;488.37;;;102.80;;
4294;SDS011;2161;53.634;10.100;2023-04-03T03:29:37;484.40;;;100.90;;
4294;SDS011;2161;53.634;10.100;2023-04-03T03:32:02;487.63;;;102.07;;
4294;SDS011;2161;53.634;10.100;2023-04-03T03:34:28;486.70;;;102.43;;
4294;SDS011;2161;53.634;10.100;2023-04-03T03:36:54;501.87;;;110.40;;
4294;SDS011;2161;53.634;10.100;2023-04-03T03:39:20;490.67;;;103.65;;
4294;SDS011;2161;53.634;10.100;2023-04-03T03:41:45;490.33;;;103.53;;
4294;SDS011;2161;53.634;10.100;2023-04-03T03:44:11;483.17;;;100.97;;
4294;SDS011;2161;53.634;10.100;2023-04-03T03:46:36;487.93;;;102.50;;
4294;SDS011;2161;53.634;10.100;2023-04-03T03:49:02;491.23;;;104.23;;
4294;SDS011;2161;53.634;10.100;2023-04-03T03:51:28;490.87;;;104.00;;
4294;SDS011;2161;53.634;10.100;2023-04-03T03:53:53;491.43;;;104.80;;
4294;SDS011;2161;53.634;10.100;2023-04-03T03:56:19;484.83;;;102.07;;
4294;SDS011;2161;53.634;10.100;2023-04-03T03:58:45;487.13;;;103.00;;
4294;SDS011;2161;53.634;10.100;2023-04-03T04:01:10;481.57;;;101.47;;
4294;SDS011;2161;53.634;10.100;2023-04-03T04:03:36;482.77;;;102.00;;
4294;SDS011;2161;53.634;10.100;2023-04-03T04:06:02;490.17;;;103.80;;
4294;SDS011;2161;53.634;10.100;2023-04-03T04:08:27;482.73;;;101.77;;
4294;SDS011;2161;53.634;10.100;2023-04-03T04:10:53;486.57;;;104.40;;
4294;SDS011;2161;53.634;10.100;2023-04-03T04:13:18;490.23;;;104.80;;
4294;SDS011;2161;53.634;10.100;2023-04-03T04:15:44;481.60;;;101.97;;
4294;SDS011;2161;53.634;10.100;2023-04-03T04:18:10;489.23;;;105.07;;
4294;SDS011;2161;53.634;10.100;2023-04-03T04:20:35;485.60;;;101.40;;
4294;SDS011;2161;53.634;10.100;2023-04-03T04:23:01;485.73;;;101.90;;
4294;SDS011;2161;53.634;10.100;2023-04-03T04:25:26;485.23;;;103.10;;
4294;SDS011;2161;53.634;10.100;2023-04-03T04:27:52;485.87;;;102.47;;
4294;SDS011;2161;53.634;10.100;2023-04-03T04:30:17;482.87;;;102.50;;
4294;SDS011;2161;53.634;10.100;2023-04-03T04:32:43;487.27;;;103.00;;
4294;SDS011;2161;53.634;10.100;2023-04-03T04:35:08;493.13;;;106.03;;
4294;SDS011;2161;53.634;10.100;2023-04-03T04:37:34;482.50;;;101.50;;
4294;SDS011;2161;53.634;10.100;2023-04-03T04:40:00;481.93;;;102.00;;
4294;SDS011;2161;53.634;10.100;2023-04-03T04:42:25;488.73;;;104.00;;
4294;SDS011;2161;53.634;10.100;2023-04-03T04:44:51;484.30;;;101.83;;
4294;SDS011;2161;53.634;10.100;2023-04-03T04:47:17;486.47;;;103.30;;
4294;SDS011;2161;53.634;10.100;2023-04-03T04:49:42;493.65;;;107.85;;
4294;SDS011;2161;53.634;10.100;2023-04-03T04:52:08;498.00;;;110.03;;
4294;SDS011;2161;53.634;10.100;2023-04-03T04:54:33;483.33;;;102.20;;
4294;SDS011;2161;53.634;10.100;2023-04-03T04:56:59;490.87;;;105.93;;
4294;SDS011;2161;53.634;10.100;2023-04-03T04:59:24;481.13;;;102.10;;
4294;SDS011;2161;53.634;10.100;2023-04-03T05:01:50;489.13;;;106.83;;
4294;SDS011;2161;53.634;10.100;2023-04-03T05:04:16;489.37;;;108.10;;
4294;SDS011;2161;53.634;10.100;2023-04-03T05:06:42;494.33;;;109.43;;
4294;SDS011;2161;53.634;10.100;2023-04-03T05:09:08;498.93;;;110.57;;
4294;SDS011;2161;53.634;10.100;2023-04-03T05:11:34;496.48;;;109.55;;
4294;SDS011;2161;53.634;10.100;2023-04-03T05:14:00;489.83;;;105.77;;
4294;SDS011;2161;53.634;10.100;2023-04-03T05:16:25;488.90;;;104.87;;
4294;SDS011;2161;53.634;10.100;2023-04-03T05:18:51;487.30;;;106.70;;
4294;SDS011;2161;53.634;10.100;2023-04-03T05:21:16;496.93;;;109.70;;
4294;SDS011;2161;53.634;10.100;2023-04-03T05:23:43;502.58;;;113.00;;
4294;SDS011;2161;53.634;10.100;2023-04-03T05:26:08;502.70;;;112.47;;
4294;SDS011;2161;53.634;10.100;2023-04-03T05:28:34;497.07;;;109.43;;
4294;SDS011;2161;53.634;10.100;2023-04-03T05:31:00;491.77;;;107.13;;
4294;SDS011;2161;53.634;10.100;2023-04-03T05:33:26;493.80;;;107.13;;
4294;SDS011;2161;53.634;10.100;2023-04-03T05:35:52;486.37;;;103.20;;
4294;SDS011;2161;53.634;10.100;2023-04-03T05:38:18;484.25;;;103.30;;
4294;SDS011;2161;53.634;10.100;2023-04-03T05:40:43;486.53;;;103.13;;
4294;SDS011;2161;53.634;10.100;2023-04-03T05:43:09;486.47;;;104.90;;
4294;SDS011;2161;53.634;10.100;2023-04-03T05:45:35;498.63;;;110.03;;
4294;SDS011;2161;53.634;10.100;2023-04-03T05:48:00;485.67;;;102.43;;
4294;SDS011;2161;53.634;10.100;2023-04-03T05:50:26;493.60;;;106.47;;
4294;SDS011;2161;53.634;10.100;2023-04-03T05:52:53;490.27;;;103.63;;
4294;SDS011;2161;53.634;10.100;2023-04-03T05:55:21;494.88;;;108.43;;
4294;SDS011;2161;53.634;10.100;2023-04-03T05:57:47;488.50;;;102.77;;
4294;SDS011;2161;53.634;10.100;2023-04-03T06:00:13;487.33;;;103.20;;
4294;SDS011;2161;53.634;10.100;2023-04-03T06:02:40;490.65;;;103.20;;
4294;SDS011;2161;53.634;10.100;2023-04-03T06:05:07;493.83;;;104.85;;
4294;SDS011;2161;53.634;10.100;2023-04-03T06:07:33;487.05;;;103.13;;
4294;SDS011;2161;53.634;10.100;2023-04-03T06:09:59;498.23;;;106.80;;
4294;SDS011;2161;53.634;10.100;2023-04-03T06:12:25;491.23;;;104.40;;
4294;SDS011;2161;53.634;10.100;2023-04-03T06:14:50;488.93;;;103.50;;
4294;SDS011;2161;53.634;10.100;2023-04-03T06:17:16;492.40;;;104.63;;
4294;SDS011;2161;53.634;10.100;2023-04-03T06:19:42;488.40;;;102.10;;
4294;SDS011;2161;53.634;10.100;2023-04-03T06:22:08;495.27;;;104.50;;
4294;SDS011;2161;53.634;10.100;2023-04-03T06:24:34;488.83;;;102.37;;
4294;SDS011;2161;53.634;10.100;2023-04-03T06:27:00;493.13;;;103.10;;
4294;SDS011;2161;53.634;10.100;2023-04-03T06:29:26;495.53;;;103.97;;
4294;SDS011;2161;53.634;10.100;2023-04-03T06:31:51;498.90;;;105.60;;
4294;SDS011;2161;53.634;10.100;2023-04-03T06:34:17;499.07;;;106.33;;
4294;SDS011;2161;53.634;10.100;2023-04-03T06:36:43;491.83;;;104.27;;
4294;SDS011;2161;53.634;10.100;2023-04-03T06:39:17;496.85;;;104.55;;
4294;SDS011;2161;53.634;10.100;2023-04-03T06:41:47;496.23;;;104.13;;
4294;SDS011;2161;53.634;10.100;2023-04-03T06:44:13;493.60;;;102.97;;
4294;SDS011;2161;53.634;10.100;2023-04-03T06:46:41;508.13;;;108.65;;
4294;SDS011;2161;53.634;10.100;2023-04-03T06:49:07;511.83;;;111.80;;
4294;SDS011;2161;53.634;10.100;2023-04-03T06:51:33;507.60;;;108.13;;
4294;SDS011;2161;53.634;10.100;2023-04-03T06:54:00;508.42;;;109.45;;
4294;SDS011;2161;53.634;10.100;2023-04-03T06:56:26;500.63;;;104.03;;
4294;SDS011;2161;53.634;10.100;2023-04-03T06:58:53;500.75;;;104.22;;
4294;SDS011;2161;53.634;10.100;2023-04-03T07:01:19;503.45;;;105.28;;
4294;SDS011;2161;53.634;10.100;2023-04-03T07:03:46;500.50;;;104.43;;
4294;SDS011;2161;53.634;10.100;2023-04-03T07:06:14;505.40;;;106.32;;
4294;SDS011;2161;53.634;10.100;2023-04-03T07:08:41;501.17;;;103.85;;
4294;SDS011;2161;53.634;10.100;2023-04-03T07:11:07;505.52;;;105.25;;
4294;SDS011;2161;53.634;10.100;2023-04-03T07:13:33;505.08;;;106.90;;
4294;SDS011;2161;53.634;10.100;2023-04-03T07:16:00;502.67;;;105.45;;
4294;SDS011;2161;53.634;10.100;2023-04-03T07:18:26;500.88;;;105.28;;
4294;SDS011;2161;53.634;10.100;2023-04-03T07:20:51;499.27;;;104.07;;
4294;SDS011;2161;53.634;10.100;2023-04-03T07:23:17;507.03;;;106.17;;
4294;SDS011;2161;53.634;10.100;2023-04-03T07:25:44;503.17;;;104.15;;
4294;SDS011;2161;53.634;10.100;2023-04-03T07:28:11;517.78;;;111.55;;
4294;SDS011;2161;53.634;10.100;2023-04-03T07:30:44;501.15;;;103.82;;
4294;SDS011;2161;53.634;10.100;2023-04-03T07:33:11;531.10;;;116.80;;
4294;SDS011;2161;53.634;10.100;2023-04-03T07:35:38;507.45;;;105.97;;
4294;SDS011;2161;53.634;10.100;2023-04-03T07:38:04;512.22;;;107.60;;
4294;SDS011;2161;53.634;10.100;2023-04-03T07:40:31;506.20;;;105.88;;
4294;SDS011;2161;53.634;10.100;2023-04-03T07:42:56;503.90;;;104.60;;
4294;SDS011;2161;53.634;10.100;2023-04-03T07:45:22;510.83;;;106.57;;
4294;SDS011;2161;53.634;10.100;2023-04-03T07:47:48;511.98;;;107.45;;
4294;SDS011;2161;53.634;10.100;2023-04-03T07:50:14;508.23;;;106.87;;
4294;SDS011;2161;53.634;10.100;2023-04-03T07:52:40;518.70;;;109.57;;
4294;SDS011;2161;53.634;10.100;2023-04-03T07:55:06;509.93;;;105.83;;
4294;SDS011;2161;53.634;10.100;2023-04-03T07:57:32;511.15;;;106.43;;
4294;SDS011;2161;53.634;10.100;2023-04-03T07:59:57;512.83;;;106.57;;
4294;SDS011;2161;53.634;10.100;2023-04-03T08:02:23;513.83;;;107.13;;
4294;SDS011;2161;53.634;10.100;2023-04-03T08:04:48;512.27;;;107.60;;
4294;SDS011;2161;53.634;10.100;2023-04-03T08:07:14;517.07;;;109.23;;
4294;SDS011;2161;53.634;10.100;2023-04-03T08:09:40;511.47;;;106.07;;
4294;SDS011;2161;53.634;10.100;2023-04-03T08:12:06;524.90;;;110.22;;
4294;SDS011;2161;53.634;10.100;2023-04-03T08:14:31;507.17;;;104.30;;
4294;SDS011;2161;53.634;10.100;2023-04-03T08:16:59;515.10;;;107.78;;
4294;SDS011;2161;53.634;10.100;2023-04-03T08:19:25;518.27;;;107.83;;
4294;SDS011;2161;53.634;10.100;2023-04-03T08:21:51;521.33;;;108.97;;
4294;SDS011;2161;53.634;10.100;2023-04-03T08:24:17;520.45;;;109.60;;
4294;SDS011;2161;53.634;10.100;2023-04-03T08:26:43;516.23;;;106.27;;
4294;SDS011;2161;53.634;10.100;2023-04-03T08:29:08;518.57;;;107.33;;
4294;SDS011;2161;53.634;10.100;2023-04-03T08:31:34;529.83;;;112.20;;
4294;SDS011;2161;53.634;10.100;2023-04-03T08:33:59;515.83;;;106.80;;
4294;SDS011;2161;53.634;10.100;2023-04-03T08:36:26;518.10;;;106.93;;
4294;SDS011;2161;53.634;10.100;2023-04-03T08:38:53;522.35;;;107.63;;
4294;SDS011;2161;53.634;10.100;2023-04-03T08:41:25;521.20;;;107.57;;
4294;SDS011;2161;53.634;10.100;2023-04-03T08:52:12;557.33;;;120.20;;
4294;SDS011;2161;53.634;10.100;2023-04-03T08:54:54;538.15;;;109.40;;
4294;SDS011;2161;53.634;10.100;2023-04-03T08:57:41;547.08;;;115.15;;
4294;SDS011;2161;53.634;10.100;2023-04-03T09:07:44;538.33;;;111.40;;
4294;SDS011;2161;53.634;10.100;2023-04-03T09:10:13;536.10;;;112.53;;
4294;SDS011;2161;53.634;10.100;2023-04-03T09:12:44;538.83;;;110.78;;
4294;SDS011;2161;53.634;10.100;2023-04-03T09:15:22;548.00;;;116.38;;
4294;SDS011;2161;53.634;10.100;2023-04-03T09:17:53;540.15;;;109.75;;
4294;SDS011;2161;53.634;10.100;2023-04-03T09:20:42;537.30;;;110.43;;
4294;SDS011;2161;53.634;10.100;2023-04-03T09:23:12;553.78;;;118.53;;
4294;SDS011;2161;53.634;10.100;2023-04-03T09:25:46;540.40;;;113.05;;
4294;SDS011;2161;53.634;10.100;2023-04-03T09:28:12;547.22;;;114.10;;
4294;SDS011;2161;53.634;10.100;2023-04-03T09:30:38;574.30;;;114.87;;
4294;SDS011;2161;53.634;10.100;2023-04-03T09:33:04;635.23;;;132.00;;
4294;SDS011;2161;53.634;10.100;2023-04-03T09:35:34;618.50;;;122.97;;
4294;SDS011;2161;53.634;10.100;2023-04-03T09:38:14;626.63;;;128.77;;
4294;SDS011;2161;53.634;10.100;2023-04-03T09:40:46;630.87;;;129.07;;
4294;SDS011;2161;53.634;10.100;2023-04-03T09:43:25;643.53;;;135.70;;
4294;SDS011;2161;53.634;10.100;2023-04-03T09:45:53;630.47;;;130.40;;
4294;SDS011;2161;53.634;10.100;2023-04-03T09:48:21;642.10;;;137.07;;
4294;SDS011;2161;53.634;10.100;2023-04-03T09:55:58;654.57;;;144.53;;
4294;SDS011;2161;53.634;10.100;2023-04-03T09:58:26;657.53;;;146.53;;
4294;SDS011;2161;53.634;10.100;2023-04-03T10:00:58;652.47;;;142.70;;
4294;SDS011;2161;53.634;10.100;2023-04-03T10:05:54;650.70;;;138.80;;
4294;SDS011;2161;53.634;10.100;2023-04-03T10:08:33;651.10;;;141.00;;
4294;SDS011;2161;53.634;10.100;2023-04-03T10:11:12;646.73;;;138.93;;
4294;SDS011;2161;53.634;10.100;2023-04-03T10:13:57;646.73;;;137.63;;
4294;SDS011;2161;53.634;10.100;2023-04-03T10:16:26;648.17;;;136.60;;
4294;SDS011;2161;53.634;10.100;2023-04-03T10:19:14;647.40;;;137.77;;
4294;SDS011;2161;53.634;10.100;2023-04-03T10:24:51;644.37;;;134.93;;
4294;SDS011;2161;53.634;10.100;2023-04-03T10:33:31;639.40;;;134.63;;
4294;SDS011;2161;53.634;10.100;2023-04-03T10:36:12;639.27;;;130.93;;
4294;SDS011;2161;53.634;10.100;2023-04-03T10:47:22;616.20;;;127.27;;
4294;SDS011;2161;53.634;10.100;2023-04-03T10:57:30;608.63;;;126.47;;
4294;SDS011;2161;53.634;10.100;2023-04-03T10:59:56;600.67;;;123.53;;
4294;SDS011;2161;53.634;10.100;2023-04-03T11:02:33;588.80;;;119.83;;
4294;SDS011;2161;53.634;10.100;2023-04-03T11:08:07;580.83;;;118.97;;
4294;SDS011;2161;53.634;10.100;2023-04-03T11:10:58;589.07;;;120.87;;
4294;SDS011;2161;53.634;10.100;2023-04-03T11:13:34;580.70;;;117.87;;
4294;SDS011;2161;53.634;10.100;2023-04-03T11:16:05;574.73;;;117.10;;
4294;SDS011;2161;53.634;10.100;2023-04-03T11:18:34;571.43;;;115.40;;
4294;SDS011;2161;53.634;10.100;2023-04-03T11:21:12;573.03;;;116.97;;
4294;SDS011;2161;53.634;10.100;2023-04-03T11:23:46;575.33;;;118.00;;
4294;SDS011;2161;53.634;10.100;2023-04-03T11:26:13;579.67;;;119.33;;
4294;SDS011;2161;53.634;10.100;2023-04-03T11:28:40;570.97;;;118.73;;
4294;SDS011;2161;53.634;10.100;2023-04-03T11:31:15;575.37;;;118.67;;
4294;SDS011;2161;53.634;10.100;2023-04-03T11:33:47;569.10;;;116.37;;
4294;SDS011;2161;53.634;10.100;2023-04-03T11:38:43;576.10;;;120.60;;
4294;SDS011;2161;53.634;10.100;2023-04-03T11:41:12;570.10;;;117.30;;
4294;SDS011;2161;53.634;10.100;2023-04-03T11:44:25;567.60;;;115.20;;
4294;SDS011;2161;53.634;10.100;2023-04-03T11:46:54;573.83;;;116.90;;
4294;SDS011;2161;53.634;10.100;2023-04-03T11:51:49;582.20;;;119.30;;
4294;SDS011;2161;53.634;10.100;2023-04-03T11:57:14;586.80;;;122.60;;
4294;SDS011;2161;53.634;10.100;2023-04-03T12:05:50;585.13;;;120.07;;
4294;SDS011;2161;53.634;10.100;2023-04-03T12:08:26;602.90;;;130.50;;
4294;SDS011;2161;53.634;10.100;2023-04-03T12:13:42;588.73;;;121.30;;
4294;SDS011;2161;53.634;10.100;2023-04-03T12:35:03;575.77;;;119.83;;
4294;SDS011;2161;53.634;10.100;2023-04-03T12:46:51;586.27;;;121.60;;
4294;SDS011;2161;53.634;10.100;2023-04-03T12:49:35;580.03;;;117.40;;
4294;SDS011;2161;53.634;10.100;2023-04-03T12:52:22;585.60;;;119.73;;
4294;SDS011;2161;53.634;10.100;2023-04-03T12:54:53;584.37;;;120.87;;
4294;SDS011;2161;53.634;10.100;2023-04-03T12:57:20;590.13;;;122.30;;
4294;SDS011;2161;53.634;10.100;2023-04-03T12:59:49;582.93;;;118.83;;
4294;SDS011;2161;53.634;10.100;2023-04-03T13:02:17;588.03;;;123.17;;
4294;SDS011;2161;53.634;10.100;2023-04-03T13:04:50;584.60;;;121.83;;
4294;SDS011;2161;53.634;10.100;2023-04-03T13:07:19;585.17;;;120.63;;
4294;SDS011;2161;53.634;10.100;2023-04-03T13:09:55;595.93;;;124.33;;
4294;SDS011;2161;53.634;10.100;2023-04-03T13:12:22;588.90;;;120.53;;
4294;SDS011;2161;53.634;10.100;2023-04-03T13:14:51;591.60;;;123.07;;
4294;SDS011;2161;53.634;10.100;2023-04-03T13:17:19;598.60;;;126.37;;
4294;SDS011;2161;53.634;10.100;2023-04-03T13:19:45;590.13;;;121.33;;
4294;SDS011;2161;53.634;10.100;2023-04-03T13:22:21;590.67;;;121.40;;
4294;SDS011;2161;53.634;10.100;2023-04-03T13:25:04;589.10;;;122.70;;
4294;SDS011;2161;53.634;10.100;2023-04-03T13:27:31;594.03;;;123.77;;
4294;SDS011;2161;53.634;10.100;2023-04-03T13:29:57;592.40;;;121.53;;
4294;SDS011;2161;53.634;10.100;2023-04-03T13:32:25;597.93;;;124.97;;
4294;SDS011;2161;53.634;10.100;2023-04-03T13:34:53;594.90;;;128.47;;
4294;SDS011;2161;53.634;10.100;2023-04-03T13:37:19;587.53;;;123.10;;
4294;SDS011;2161;53.634;10.100;2023-04-03T13:39:45;586.57;;;122.60;;
4294;SDS011;2161;53.634;10.100;2023-04-03T13:42:28;589.67;;;122.87;;
4294;SDS011;2161;53.634;10.100;2023-04-03T13:47:53;586.13;;;117.97;;
4294;SDS011;2161;53.634;10.100;2023-04-03T13:50:48;592.73;;;122.80;;
4294;SDS011;2161;53.634;10.100;2023-04-03T13:53:17;590.93;;;123.57;;
4294;SDS011;2161;53.634;10.100;2023-04-03T13:58:28;592.40;;;122.07;;
4294;SDS011;2161;53.634;10.100;2023-04-03T14:01:07;593.33;;;123.40;;
4294;SDS011;2161;53.634;10.100;2023-04-03T14:03:51;587.20;;;121.13;;
4294;SDS011;2161;53.634;10.100;2023-04-03T14:06:16;597.43;;;125.90;;
4294;SDS011;2161;53.634;10.100;2023-04-03T14:08:43;596.40;;;125.37;;
4294;SDS011;2161;53.634;10.100;2023-04-03T14:11:17;587.37;;;123.50;;
4294;SDS011;2161;53.634;10.100;2023-04-03T14:13:47;587.17;;;118.93;;
4294;SDS011;2161;53.634;10.100;2023-04-03T14:16:20;591.03;;;125.30;;
4294;SDS011;2161;53.634;10.100;2023-04-03T14:18:48;582.97;;;119.00;;
4294;SDS011;2161;53.634;10.100;2023-04-03T14:21:16;584.97;;;120.97;;
4294;SDS011;2161;53.634;10.100;2023-04-03T14:23:44;595.20;;;126.77;;
4294;SDS011;2161;53.634;10.100;2023-04-03T14:26:27;582.80;;;121.97;;
4294;SDS011;2161;53.634;10.100;2023-04-03T14:28:55;588.13;;;121.80;;
4294;SDS011;2161;53.634;10.100;2023-04-03T14:31:21;592.00;;;125.50;;
4294;SDS011;2161;53.634;10.100;2023-04-03T14:33:47;588.63;;;123.23;;
4294;SDS011;2161;53.634;10.100;2023-04-03T14:36:14;582.63;;;121.53;;
4294;SDS011;2161;53.634;10.100;2023-04-03T14:38:42;583.53;;;120.43;;
4294;SDS011;2161;53.634;10.100;2023-04-03T14:41:10;578.97;;;117.80;;
4294;SDS011;2161;53.634;10.100;2023-04-03T14:43:37;583.07;;;119.60;;
4294;SDS011;2161;53.634;10.100;2023-04-03T14:46:03;596.47;;;129.37;;
4294;SDS011;2161;53.634;10.100;2023-04-03T14:48:29;586.23;;;122.50;;
4294;SDS011;2161;53.634;10.100;2023-04-03T14:50:55;579.53;;;119.00;;
4294;SDS011;2161;53.634;10.100;2023-04-03T14:53:20;637.70;;;158.80;;
4294;SDS011;2161;53.634;10.100;2023-04-03T14:55:50;587.53;;;121.17;;
4294;SDS011;2161;53.634;10.100;2023-04-03T14:58:17;593.00;;;124.10;;
4294;SDS011;2161;53.634;10.100;2023-04-03T15:00:44;581.43;;;123.00;;
4294;SDS011;2161;53.634;10.100;2023-04-03T15:03:14;598.83;;;131.73;;
4294;SDS011;2161;53.634;10.100;2023-04-03T15:05:42;576.50;;;119.27;;
4294;SDS011;2161;53.634;10.100;2023-04-03T15:08:13;581.78;;;122.00;;
4294;SDS011;2161;53.634;10.100;2023-04-03T15:10:54;574.95;;;121.07;;
4294;SDS011;2161;53.634;10.100;2023-04-03T15:13:20;573.60;;;118.50;;
4294;SDS011;2161;53.634;10.100;2023-04-03T15:15:46;587.20;;;128.70;;
4294;SDS011;2161;53.634;10.100;2023-04-03T15:18:14;576.50;;;120.93;;
4294;SDS011;2161;53.634;10.100;2023-04-03T15:20:43;580.03;;;123.77;;
4294;SDS011;2161;53.634;10.100;2023-04-03T15:23:09;572.77;;;119.40;;
4294;SDS011;2161;53.634;10.100;2023-04-03T15:25:36;565.73;;;117.30;;
4294;SDS011;2161;53.634;10.100;2023-04-03T15:28:02;568.53;;;120.30;;
4294;SDS011;2161;53.634;10.100;2023-04-03T15:30:28;569.17;;;117.57;;
4294;SDS011;2161;53.634;10.100;2023-04-03T15:32:54;569.33;;;117.33;;
4294;SDS011;2161;53.634;10.100;2023-04-03T15:35:20;567.63;;;117.47;;
4294;SDS011;2161;53.634;10.100;2023-04-03T15:37:45;564.73;;;116.77;;
4294;SDS011;2161;53.634;10.100;2023-04-03T15:40:12;563.63;;;115.97;;
4294;SDS011;2161;53.634;10.100;2023-04-03T15:42:38;568.93;;;119.07;;
4294;SDS011;2161;53.634;10.100;2023-04-03T15:45:05;558.90;;;114.20;;
4294;SDS011;2161;53.634;10.100;2023-04-03T15:47:31;581.13;;;125.83;;
4294;SDS011;2161;53.634;10.100;2023-04-03T15:49:57;559.27;;;114.57;;
4294;SDS011;2161;53.634;10.100;2023-04-03T15:52:22;564.70;;;118.60;;
4294;SDS011;2161;53.634;10.100;2023-04-03T15:54:48;562.83;;;114.17;;
4294;SDS011;2161;53.634;10.100;2023-04-03T15:57:14;565.40;;;116.40;;
4294;SDS011;2161;53.634;10.100;2023-04-03T15:59:39;563.83;;;115.30;;
4294;SDS011;2161;53.634;10.100;2023-04-03T16:02:05;558.90;;;114.00;;
4294;SDS011;2161;53.634;10.100;2023-04-03T16:04:33;570.33;;;119.28;;